createdAt,value
2023-05-22T00:00:35.693Z,100502.25
2023-05-22T00:03:37.723Z,100501.59
2023-05-22T00:06:43.026Z,100501.72
2023-05-22T00:09:44.858Z,100506.56
2023-05-22T00:12:46.589Z,100514.00
2023-05-22T00:15:49.125Z,100517.19
2023-05-22T00:18:50.969Z,100519.69
2023-05-22T00:21:54.307Z,100517.97
2023-05-22T00:24:56.184Z,100538.75
2023-05-22T00:27:57.938Z,100526.03
2023-05-22T00:30:59.684Z,100531.22
2023-05-22T00:34:01.592Z,100523.69
2023-05-22T00:37:03.471Z,100520.72
2023-05-22T00:40:06.196Z,100520.69
2023-05-22T00:43:09.424Z,100526.22
2023-05-22T00:46:12.642Z,100505.63
2023-05-22T00:49:14.556Z,100514.91
2023-05-22T00:52:17.768Z,100510.97
2023-05-22T00:55:19.685Z,100507.16
2023-05-22T00:58:21.908Z,100506.88
2023-05-22T01:01:26.417Z,100503.91
2023-05-22T01:04:28.783Z,100509.31
2023-05-22T01:07:30.835Z,100495.31
2023-05-22T01:10:33.935Z,100501.72
2023-05-22T01:13:55.453Z,100498.88
2023-05-22T01:17:09.330Z,100499.94
2023-05-22T01:20:30.136Z,100497.50
2023-05-22T01:24:04.542Z,100510.28
2023-05-22T01:27:42.989Z,100507.22
2023-05-22T01:30:50.884Z,100500.41
2023-05-22T01:33:55.194Z,100493.53
2023-05-22T01:36:57.494Z,100503.84
2023-05-22T01:39:59.490Z,100496.97
2023-05-22T01:43:01.384Z,100510.66
2023-05-22T01:46:03.558Z,100503.25
2023-05-22T01:49:05.922Z,100494.72
2023-05-22T01:52:38.308Z,100485.34
2023-05-22T01:55:45.377Z,100490.50
2023-05-22T01:58:54.089Z,100486.72
2023-05-22T02:01:55.926Z,100484.03
2023-05-22T02:05:00.158Z,100484.03
2023-05-22T02:08:02.352Z,100487.41
2023-05-22T02:11:05.400Z,100481.00
2023-05-22T02:14:08.993Z,100482.44
2023-05-22T02:17:10.785Z,100479.28
2023-05-22T02:20:15.394Z,100476.84
2023-05-22T02:23:17.252Z,100484.13
2023-05-22T02:26:19.333Z,100473.53
2023-05-22T02:29:21.147Z,100485.25
2023-05-22T02:32:22.907Z,100485.69
2023-05-22T02:35:24.826Z,100480.84
2023-05-22T02:38:26.592Z,100475.44
2023-05-22T02:41:28.526Z,100468.34
2023-05-22T02:44:30.416Z,100478.31
2023-05-22T02:47:32.255Z,100472.16
2023-05-22T02:50:34.288Z,100472.69
2023-05-22T02:53:40.122Z,100473.63
2023-05-22T02:56:43.283Z,100468.91
2023-05-22T02:59:45.394Z,100464.09
2023-05-22T03:02:47.321Z,100473.34
2023-05-22T03:05:50.056Z,100465.34
2023-05-22T03:08:53.146Z,100469.38
2023-05-22T03:11:54.955Z,100477.03
2023-05-22T03:14:56.948Z,100479.41
2023-05-22T03:17:58.849Z,100479.62
2023-05-22T03:21:00.681Z,100471.84
2023-05-22T03:24:03.021Z,100468.47
2023-05-22T03:27:05.067Z,100456.31
2023-05-22T03:30:08.184Z,100443.47
2023-05-22T03:33:10.403Z,100425.22
2023-05-22T03:36:12.457Z,100416.28
2023-05-22T03:39:14.263Z,100398.97
2023-05-22T03:42:16.454Z,100386.56
2023-05-22T03:45:18.526Z,100363.00
2023-05-22T03:48:21.018Z,100360.16
2023-05-22T03:51:22.880Z,100350.66
2023-05-22T03:54:24.904Z,100338.03
2023-05-22T03:57:26.683Z,100315.50
2023-05-22T04:00:28.570Z,100299.59
2023-05-22T04:03:30.671Z,100295.88
2023-05-22T04:06:33.108Z,100276.41
2023-05-22T04:09:36.198Z,100276.59
2023-05-22T04:12:38.056Z,100279.12
2023-05-22T04:15:41.703Z,100270.84
2023-05-22T04:18:43.486Z,100269.97
2023-05-22T04:21:45.390Z,100270.16
2023-05-22T04:24:49.265Z,100227.34
2023-05-22T04:27:51.237Z,100278.19
2023-05-22T04:30:54.554Z,100276.44
2023-05-22T04:33:56.575Z,100266.31
2023-05-22T04:37:00.112Z,100241.72
2023-05-22T04:40:07.479Z,100272.97
2023-05-22T04:43:09.301Z,100325.47
2023-05-22T04:46:11.119Z,100341.78
2023-05-22T04:49:13.551Z,100351.16
2023-05-22T04:52:15.397Z,100350.69
2023-05-22T04:55:17.402Z,100368.03
2023-05-22T04:58:26.214Z,100385.22
2023-05-22T05:01:29.096Z,100387.38
2023-05-22T05:04:32.509Z,100397.78
2023-05-22T05:07:37.554Z,100394.22
2023-05-22T05:10:39.605Z,100391.66
2023-05-22T05:13:42.977Z,100397.09
2023-05-22T05:16:44.912Z,100389.69
2023-05-22T05:19:46.718Z,100389.41
2023-05-22T05:22:48.596Z,100395.19
2023-05-22T05:25:50.401Z,100409.13
2023-05-22T05:28:52.187Z,100397.97
2023-05-22T05:31:54.077Z,100400.69
2023-05-22T05:34:56.481Z,100380.47
2023-05-22T05:37:58.355Z,100394.78
2023-05-22T05:41:00.313Z,100403.63
2023-05-22T05:44:02.131Z,100402.56
2023-05-22T05:47:04.118Z,100402.75
2023-05-22T05:50:07.298Z,100397.63
2023-05-22T05:53:09.339Z,100411.06
2023-05-22T05:56:11.145Z,100386.75
2023-05-22T05:59:13.255Z,100384.09
2023-05-22T06:02:15.057Z,100379.16
2023-05-22T06:05:19.275Z,100389.37
2023-05-22T06:08:21.938Z,100406.06
2023-05-22T06:11:24.329Z,100408.62
2023-05-22T06:14:26.095Z,100430.88
2023-05-22T06:17:28.006Z,100431.38
2023-05-22T06:20:29.910Z,100418.69
2023-05-22T06:23:32.393Z,100358.34
2023-05-22T06:26:34.220Z,100373.59
2023-05-22T06:29:36.338Z,100372.69
2023-05-22T06:32:38.296Z,100359.34
2023-05-22T06:35:40.256Z,100369.94
2023-05-22T06:38:41.996Z,100373.41
2023-05-22T06:41:43.854Z,100375.44
2023-05-22T06:44:45.756Z,100378.03
2023-05-22T06:47:47.598Z,100387.41
2023-05-22T06:50:49.438Z,100379.22
2023-05-22T06:53:51.632Z,100349.66
2023-05-22T06:56:53.595Z,100367.38
2023-05-22T06:59:55.355Z,100363.53
2023-05-22T07:02:57.167Z,100356.81
2023-05-22T07:05:59.554Z,100346.91
2023-05-22T07:09:01.549Z,100310.94
2023-05-22T07:12:03.476Z,100340.06
2023-05-22T07:15:05.664Z,100321.22
2023-05-22T07:18:09.363Z,100277.91
2023-05-22T07:21:11.598Z,100281.19
2023-05-22T07:24:13.436Z,100279.75
2023-05-22T07:27:15.360Z,100314.28
2023-05-22T07:30:17.100Z,100317.09
2023-05-22T07:33:18.828Z,100271.22
2023-05-22T07:36:21.054Z,100304.81
2023-05-22T07:39:22.856Z,100308.03
2023-05-22T07:42:26.099Z,100288.44
2023-05-22T07:45:27.926Z,100295.50
2023-05-22T07:48:29.810Z,100279.66
2023-05-22T07:51:32.169Z,100288.56
2023-05-22T07:54:33.961Z,100282.56
2023-05-22T07:57:36.207Z,100304.03
2023-05-22T08:00:38.058Z,100300.03
2023-05-22T08:03:40.282Z,100295.56
2023-05-22T08:06:43.890Z,100290.53
2023-05-22T08:09:46.805Z,100240.81
2023-05-22T08:12:48.619Z,100296.47
2023-05-22T08:15:50.743Z,100293.59
2023-05-22T08:19:02.736Z,100265.91
2023-05-22T08:22:04.645Z,100267.81
2023-05-22T08:25:06.656Z,100257.06
2023-05-22T08:28:08.551Z,100262.97
2023-05-22T08:31:13.076Z,100242.38
2023-05-22T08:34:15.166Z,100245.06
2023-05-22T08:37:16.987Z,100249.72
2023-05-22T08:40:20.408Z,100252.81
2023-05-22T08:43:22.486Z,100255.94
2023-05-22T08:46:28.236Z,100239.12
2023-05-22T08:49:30.739Z,100244.03
2023-05-22T08:52:51.233Z,100228.31
2023-05-22T08:55:53.812Z,100216.37
2023-05-22T08:58:55.716Z,100204.00
2023-05-22T09:01:58.244Z,100192.56
2023-05-22T09:05:05.311Z,100231.97
2023-05-22T09:08:19.132Z,100216.13
2023-05-22T09:11:22.716Z,100185.78
2023-05-22T09:14:25.469Z,100216.13
2023-05-22T09:17:27.497Z,100212.25
2023-05-22T09:20:29.575Z,100216.91
2023-05-22T09:23:32.099Z,100183.00
2023-05-22T09:26:34.670Z,100187.41
2023-05-22T09:29:50.943Z,100182.56
2023-05-22T09:32:53.290Z,100217.59
2023-05-22T09:35:55.321Z,100197.88
2023-05-22T09:38:58.133Z,100197.66
2023-05-22T09:42:01.527Z,100215.28
2023-05-22T09:45:07.186Z,100222.44
2023-05-22T09:48:10.181Z,100207.78
2023-05-22T09:51:13.067Z,100237.00
2023-05-22T09:54:16.198Z,100240.84
2023-05-22T09:57:19.669Z,100212.50
2023-05-22T10:00:24.409Z,100213.28
2023-05-22T10:03:27.170Z,100172.91
2023-05-22T10:06:31.572Z,100190.91
2023-05-22T10:09:36.508Z,100169.84
2023-05-22T10:13:07.968Z,100198.75
2023-05-22T10:16:12.091Z,100209.06
2023-05-22T10:19:14.570Z,100179.03
2023-05-22T10:22:20.877Z,100194.06
2023-05-22T10:25:23.269Z,100180.88
2023-05-22T10:28:29.366Z,100185.09
2023-05-22T10:32:13.402Z,100192.00
2023-05-22T10:35:21.132Z,100156.22
2023-05-22T10:38:28.298Z,100174.44
2023-05-22T10:41:31.103Z,100205.28
2023-05-22T10:44:33.469Z,100184.69
2023-05-22T10:47:35.731Z,100183.28
2023-05-22T10:50:38.499Z,100166.94
2023-05-22T10:53:42.907Z,100172.28
2023-05-22T10:56:45.574Z,100162.50
2023-05-22T10:59:47.882Z,100152.69
2023-05-22T11:02:49.986Z,100153.25
2023-05-22T11:05:53.930Z,100151.66
2023-05-22T11:08:56.501Z,100163.06
2023-05-22T11:12:17.825Z,100141.03
2023-05-22T11:15:30.683Z,100137.88
2023-05-22T11:18:32.551Z,100153.31
2023-05-22T11:21:47.688Z,100127.81
2023-05-22T11:24:49.573Z,100140.41
2023-05-22T11:27:51.410Z,100139.50
2023-05-22T11:30:54.147Z,100145.97
2023-05-22T11:33:56.146Z,100125.81
2023-05-22T11:37:01.689Z,100144.44
2023-05-22T11:40:06.085Z,100146.69
2023-05-22T11:43:08.136Z,100140.84
2023-05-22T11:46:11.215Z,100136.41
2023-05-22T11:49:13.297Z,100151.44
2023-05-22T11:52:19.060Z,100158.91
2023-05-22T11:55:22.688Z,100166.47
2023-05-22T11:58:28.627Z,100168.66
2023-05-22T12:01:30.917Z,100160.50
2023-05-22T12:04:33.267Z,100152.56
2023-05-22T12:07:35.148Z,100166.09
2023-05-22T12:10:37.202Z,100156.25
2023-05-22T12:13:39.382Z,100149.13
2023-05-22T12:16:41.357Z,100145.44
2023-05-22T12:19:44.167Z,100139.22
2023-05-22T12:22:47.122Z,100079.47
2023-05-22T12:25:57.875Z,100119.84
2023-05-22T12:28:59.802Z,100100.00
2023-05-22T12:32:03.304Z,100087.50
2023-05-22T12:35:05.676Z,100108.91
2023-05-22T12:38:07.676Z,100119.13
2023-05-22T12:41:09.430Z,100111.91
2023-05-22T12:44:12.077Z,100103.50
2023-05-22T12:47:13.911Z,100107.59
2023-05-22T12:50:22.743Z,100092.03
2023-05-22T12:57:36.555Z,100069.59
2023-05-22T13:00:38.593Z,100069.38
2023-05-22T13:03:40.583Z,100064.31
2023-05-22T13:06:42.380Z,100045.62
2023-05-22T13:09:44.236Z,100061.53
2023-05-22T13:12:48.567Z,100056.16
2023-05-22T13:15:50.533Z,100044.81
2023-05-22T13:18:52.448Z,100040.66
2023-05-22T13:21:54.333Z,100050.16
2023-05-22T13:24:56.171Z,100051.13
2023-05-22T13:27:59.285Z,100049.66
2023-05-22T13:31:01.219Z,100041.66
2023-05-22T13:34:03.326Z,100054.72
2023-05-22T13:37:05.343Z,100045.56
2023-05-22T13:40:12.250Z,100034.22
2023-05-22T13:43:14.811Z,100057.06
2023-05-22T13:46:18.147Z,100036.97
2023-05-22T13:49:19.984Z,100044.66
2023-05-22T13:52:22.152Z,100039.66
2023-05-22T13:55:24.013Z,100038.38
2023-05-22T13:58:25.928Z,100039.19
2023-05-22T14:01:27.841Z,100043.03
2023-05-22T14:04:29.810Z,100044.41
2023-05-22T14:07:31.632Z,100035.47
2023-05-22T14:10:34.560Z,100043.34
2023-05-22T14:13:36.410Z,100035.69
2023-05-22T14:16:39.025Z,100030.84
2023-05-22T14:19:41.374Z,100021.94
2023-05-22T14:22:56.377Z,100024.09
2023-05-22T14:25:59.910Z,100016.03
2023-05-22T14:29:01.795Z,100023.44
2023-05-22T14:32:04.733Z,100023.78
2023-05-22T14:35:06.755Z,100028.84
2023-05-22T14:38:08.597Z,100033.50
2023-05-22T14:41:10.709Z,100022.69
2023-05-22T14:44:12.563Z,100018.50
2023-05-22T14:47:14.386Z,100013.34
2023-05-22T14:50:19.768Z,100008.28
2023-05-22T14:53:23.274Z,100027.78
2023-05-22T14:56:26.505Z,100016.37
2023-05-22T14:59:28.410Z,100038.09
2023-05-22T15:02:30.300Z,100035.53
2023-05-22T15:05:32.151Z,100029.97
2023-05-22T15:08:34.245Z,100041.00
2023-05-22T15:11:36.649Z,100035.66
2023-05-22T15:14:38.577Z,100017.81
2023-05-22T15:17:42.636Z,100042.72
2023-05-22T15:20:45.096Z,100039.00
2023-05-22T15:23:47.021Z,100041.00
2023-05-22T15:26:48.858Z,100055.91
2023-05-22T15:29:50.759Z,100063.34
2023-05-22T15:32:52.604Z,100062.50
2023-05-22T15:35:54.538Z,100064.06
2023-05-22T15:38:56.380Z,100066.19
2023-05-22T15:42:05.815Z,100064.66
2023-05-22T15:45:13.393Z,100054.94
2023-05-22T15:48:18.245Z,100051.31
2023-05-22T15:51:20.129Z,100063.00
2023-05-22T15:54:21.951Z,100060.25
2023-05-22T15:57:23.856Z,100055.81
2023-05-22T16:00:26.926Z,100065.09
2023-05-22T16:03:28.920Z,100076.56
2023-05-22T16:06:30.752Z,100061.75
2023-05-22T16:09:32.969Z,100075.94
2023-05-22T16:12:34.935Z,100070.44
2023-05-22T16:15:39.687Z,100103.59
2023-05-22T16:18:41.776Z,100118.59
2023-05-22T16:21:44.242Z,100132.59
2023-05-22T16:24:46.336Z,100158.06
2023-05-22T16:27:48.163Z,100159.00
2023-05-22T16:30:49.910Z,100163.25
2023-05-22T16:33:53.033Z,100164.06
2023-05-22T16:36:54.978Z,100173.22
2023-05-22T16:39:56.777Z,100169.50
2023-05-22T16:42:58.654Z,100194.91
2023-05-22T16:46:00.583Z,100193.19
2023-05-22T16:49:02.487Z,100194.22
2023-05-22T16:52:04.418Z,100237.03
2023-05-22T16:55:07.029Z,100171.06
2023-05-22T16:58:13.443Z,100172.91
2023-05-22T17:01:15.540Z,100183.69
2023-05-22T17:04:20.168Z,100165.19
2023-05-22T17:07:24.882Z,100158.38
2023-05-22T17:10:30.908Z,100141.53
2023-05-22T17:13:33.244Z,100162.87
2023-05-22T17:16:35.175Z,100177.44
2023-05-22T17:19:37.303Z,100197.44
2023-05-22T17:22:39.113Z,100184.97
2023-05-22T17:25:41.826Z,100202.38
2023-05-22T17:28:44.615Z,100199.97
2023-05-22T17:31:46.585Z,100194.19
2023-05-22T17:34:49.267Z,100194.16
2023-05-22T17:37:51.221Z,100197.31
2023-05-22T17:40:53.678Z,100190.50
2023-05-22T17:43:57.153Z,100190.81
2023-05-22T17:46:59.219Z,100191.19
2023-05-22T17:50:01.078Z,100189.84
2023-05-22T17:53:03.272Z,100195.47
2023-05-22T17:56:05.764Z,100216.84
2023-05-22T17:59:08.122Z,100223.34
2023-05-22T18:02:09.985Z,100218.06
2023-05-22T18:05:12.716Z,100293.72
2023-05-22T18:08:15.955Z,100239.47
2023-05-22T18:11:18.124Z,100220.59
2023-05-22T18:14:20.334Z,100218.91
2023-05-22T18:17:22.887Z,100216.19
2023-05-22T18:20:24.865Z,100209.22
2023-05-22T18:23:26.931Z,100210.06
2023-05-22T18:26:29.035Z,100217.88
2023-05-22T18:29:30.771Z,100219.75
2023-05-22T18:32:32.754Z,100214.13
2023-05-22T18:35:34.910Z,100214.25
2023-05-22T18:38:36.951Z,100224.28
2023-05-22T18:41:38.877Z,100208.25
2023-05-22T18:44:41.107Z,100216.97
2023-05-22T18:47:42.932Z,100217.53
2023-05-22T18:50:44.917Z,100216.78
2023-05-22T18:53:47.066Z,100248.75
2023-05-22T18:56:48.989Z,100255.16
2023-05-22T18:59:51.039Z,100255.13
2023-05-22T19:02:52.871Z,100275.16
2023-05-22T19:05:55.352Z,100283.41
2023-05-22T19:08:57.209Z,100281.03
2023-05-22T19:11:59.104Z,100304.75
2023-05-22T19:15:00.940Z,100299.50
2023-05-22T19:18:02.847Z,100307.66
2023-05-22T19:21:04.724Z,100286.69
2023-05-22T19:24:06.922Z,100281.16
2023-05-22T19:27:09.010Z,100281.88
2023-05-22T19:30:11.430Z,100258.97
2023-05-22T19:33:14.568Z,100266.50
2023-05-22T19:36:16.620Z,100271.44
2023-05-22T19:39:18.378Z,100262.12
2023-05-22T19:42:20.203Z,100259.59
2023-05-22T19:45:22.050Z,100277.19
2023-05-22T19:48:23.908Z,100277.47
2023-05-22T19:51:25.819Z,100275.34
2023-05-22T19:54:27.608Z,100272.72
2023-05-22T19:57:31.130Z,100266.97
2023-05-22T20:00:33.488Z,100274.25
2023-05-22T20:03:35.681Z,100270.69
2023-05-22T20:06:37.735Z,100278.19
2023-05-22T20:09:39.503Z,100279.12
2023-05-22T20:12:41.311Z,100283.28
2023-05-22T20:15:43.154Z,100281.72
2023-05-22T20:18:44.913Z,100293.31
2023-05-22T20:21:49.050Z,100296.47
2023-05-22T20:24:52.501Z,100294.06
2023-05-22T20:27:54.264Z,100295.50
2023-05-22T20:30:56.075Z,100293.09
2023-05-22T20:33:59.127Z,100293.72
2023-05-22T20:37:02.441Z,100298.59
2023-05-22T20:40:05.490Z,100298.19
2023-05-22T20:43:07.632Z,100292.50
2023-05-22T20:46:10.201Z,100300.94
2023-05-22T20:49:12.456Z,100292.25
2023-05-22T20:52:14.317Z,100289.84
2023-05-22T20:55:16.165Z,100285.69
2023-05-22T20:58:19.849Z,100283.03
2023-05-22T21:01:22.678Z,100279.66
2023-05-22T21:04:25.936Z,100285.66
2023-05-22T21:07:27.767Z,100311.72
2023-05-22T21:10:29.616Z,100329.16
2023-05-22T21:13:31.349Z,100308.56
2023-05-22T21:16:33.216Z,100305.06
2023-05-22T21:19:35.161Z,100312.84
2023-05-22T21:22:37.048Z,100318.47
2023-05-22T21:25:38.949Z,100313.19
2023-05-22T21:28:41.925Z,100314.19
2023-05-22T21:31:43.878Z,100319.56
2023-05-22T21:34:46.715Z,100302.19
2023-05-22T21:37:48.445Z,100303.66
2023-05-22T21:40:50.372Z,100295.00
2023-05-22T21:43:52.134Z,100292.59
2023-05-22T21:46:54.059Z,100298.00
2023-05-22T21:49:55.833Z,100296.59
2023-05-22T21:52:57.610Z,100299.28
2023-05-22T21:55:59.496Z,100290.59
2023-05-22T21:59:01.238Z,100299.66
2023-05-22T22:02:03.100Z,100292.50
2023-05-22T22:05:05.284Z,100290.81
2023-05-22T22:08:07.160Z,100286.25
2023-05-22T22:11:08.973Z,100282.84
2023-05-22T22:14:10.769Z,100286.28
2023-05-22T22:17:12.509Z,100285.16
2023-05-22T22:20:14.331Z,100290.81
2023-05-22T22:23:16.234Z,100284.56
2023-05-22T22:26:18.083Z,100293.25
2023-05-22T22:29:19.891Z,100289.13
2023-05-22T22:32:21.684Z,100293.22
2023-05-22T22:35:23.527Z,100297.47
2023-05-22T22:38:25.383Z,100305.56
2023-05-22T22:41:27.585Z,100306.66
2023-05-22T22:44:29.854Z,100303.53
2023-05-22T22:47:31.699Z,100298.94
2023-05-22T22:50:33.501Z,100303.19
2023-05-22T22:53:36.352Z,100294.63
2023-05-22T22:56:38.278Z,100295.94
2023-05-22T22:59:40.285Z,100296.91
2023-05-22T23:02:42.217Z,100291.50
2023-05-22T23:05:44.334Z,100289.22
2023-05-22T23:08:46.315Z,100294.75
2023-05-22T23:11:48.178Z,100288.19
2023-05-22T23:14:50.551Z,100287.72
2023-05-22T23:17:52.431Z,100280.06
2023-05-22T23:20:54.226Z,100283.78
2023-05-22T23:23:56.181Z,100288.25
2023-05-22T23:26:57.994Z,100288.50
2023-05-22T23:29:59.841Z,100292.53
2023-05-22T23:33:02.645Z,100296.06
2023-05-22T23:36:04.519Z,100284.44
2023-05-22T23:39:06.424Z,100292.09
2023-05-22T23:42:09.879Z,100288.31
2023-05-22T23:45:11.916Z,100283.19
2023-05-22T23:48:13.868Z,100279.91
2023-05-22T23:51:16.932Z,100286.34
2023-05-22T23:54:18.802Z,100285.09
2023-05-22T23:57:20.722Z,100282.13
